createdAt,value
2023-11-05T00:01:35.844Z,0.25
2023-11-05T00:04:07.145Z,0.40
2023-11-05T00:06:40.192Z,0.20
2023-11-05T00:09:13.840Z,0.20
2023-11-05T00:11:47.286Z,0.30
2023-11-05T00:14:17.839Z,0.30
2023-11-05T00:16:50.919Z,0.30
2023-11-05T00:19:21.408Z,0.45
2023-11-05T00:21:51.681Z,0.30
2023-11-05T00:24:21.896Z,0.30
2023-11-05T00:26:53.128Z,0.50
2023-11-05T00:29:25.621Z,0.38
2023-11-05T00:31:55.896Z,0.40
2023-11-05T00:34:27.054Z,0.25
2023-11-05T00:36:57.526Z,0.28
2023-11-05T00:39:28.514Z,0.20
2023-11-05T00:42:00.058Z,0.30
2023-11-05T00:44:30.791Z,0.10
2023-11-05T00:47:02.500Z,0.35
2023-11-05T00:49:32.953Z,0.22
2023-11-05T00:52:05.313Z,0.30
2023-11-05T00:54:36.180Z,0.45
2023-11-05T00:57:13.716Z,0.30
2023-11-05T00:59:45.897Z,0.32
2023-11-05T01:02:16.180Z,0.30
2023-11-05T01:04:47.677Z,0.20
2023-11-05T01:07:19.091Z,0.30
2023-11-05T01:09:52.380Z,0.20
2023-11-05T01:12:24.787Z,0.45
2023-11-05T01:15:00.942Z,0.40
2023-11-05T01:17:32.986Z,0.40
2023-11-05T01:20:03.563Z,0.68
2023-11-05T01:22:34.304Z,0.57
2023-11-05T01:25:06.500Z,0.30
2023-11-05T01:27:37.137Z,0.40
2023-11-05T01:30:07.737Z,0.30
2023-11-05T01:32:38.638Z,0.30
2023-11-05T01:35:10.330Z,0.22
2023-11-05T01:37:40.196Z,0.43
2023-11-05T01:40:11.240Z,0.55
2023-11-05T01:42:42.206Z,0.30
2023-11-05T01:45:14.227Z,0.47
2023-11-05T01:47:48.229Z,0.30
2023-11-05T01:50:20.630Z,0.43
2023-11-05T01:53:02.084Z,0.30
2023-11-05T01:55:32.737Z,0.30
2023-11-05T01:58:03.844Z,0.52
2023-11-05T02:00:40.128Z,0.50
2023-11-05T02:03:13.607Z,0.60
2023-11-05T02:05:49.159Z,0.40
2023-11-05T02:08:21.334Z,0.65
2023-11-05T02:10:52.191Z,0.70
2023-11-05T02:13:22.966Z,0.60
2023-11-05T02:15:55.699Z,0.70
2023-11-05T02:18:26.011Z,0.65
2023-11-05T02:20:57.050Z,0.98
2023-11-05T02:23:27.992Z,0.65
2023-11-05T02:25:59.111Z,0.70
2023-11-05T02:28:29.587Z,0.50
2023-11-05T02:31:00.565Z,0.60
2023-11-05T02:33:30.538Z,0.50
2023-11-05T02:36:00.789Z,0.50
2023-11-05T02:38:31.728Z,0.60
2023-11-05T02:41:01.711Z,0.47
2023-11-05T02:43:32.561Z,0.50
2023-11-05T02:46:03.556Z,0.40
2023-11-05T02:48:38.428Z,0.50
2023-11-05T02:51:09.550Z,0.30
2023-11-05T02:53:40.038Z,0.50
2023-11-05T02:56:11.138Z,0.40
2023-11-05T02:58:41.817Z,0.50
2023-11-05T03:01:13.664Z,0.30
2023-11-05T03:03:44.363Z,0.50
2023-11-05T03:06:14.706Z,0.50
2023-11-05T03:08:45.373Z,0.52
2023-11-05T03:14:02.495Z,0.40
2023-11-05T03:16:32.727Z,0.60
2023-11-05T03:19:04.105Z,0.57
2023-11-05T03:21:34.397Z,0.55
2023-11-05T03:24:07.810Z,0.40
2023-11-05T03:26:38.549Z,0.65
2023-11-05T03:29:09.343Z,0.45
2023-11-05T03:31:39.595Z,0.50
2023-11-05T03:34:09.887Z,0.45
2023-11-05T03:36:41.295Z,0.60
2023-11-05T03:39:11.747Z,0.57
2023-11-05T03:41:42.101Z,0.50
2023-11-05T03:44:12.270Z,0.80
2023-11-05T03:46:44.278Z,0.35
2023-11-05T03:49:15.702Z,0.68
2023-11-05T03:51:47.593Z,0.43
2023-11-05T03:54:18.286Z,0.30
2023-11-05T03:56:49.314Z,0.50
2023-11-05T03:59:19.693Z,0.40
2023-11-05T04:01:54.168Z,0.30
2023-11-05T04:04:24.551Z,0.30
2023-11-05T04:06:55.545Z,0.30
2023-11-05T04:09:25.700Z,0.30
2023-11-05T04:11:55.701Z,0.32
2023-11-05T04:14:26.614Z,0.35
2023-11-05T04:16:58.010Z,0.32
2023-11-05T04:19:28.390Z,0.40
2023-11-05T04:21:58.712Z,0.30
2023-11-05T04:24:28.858Z,0.35
2023-11-05T04:27:00.474Z,0.45
2023-11-05T04:29:32.959Z,0.50
2023-11-05T04:32:04.447Z,0.55
2023-11-05T04:34:35.344Z,0.55
2023-11-05T04:37:05.772Z,0.60
2023-11-05T04:39:41.259Z,1.30
2023-11-05T04:42:13.560Z,0.85
2023-11-05T04:44:44.129Z,1.08
2023-11-05T04:47:14.310Z,0.60
2023-11-05T04:49:45.250Z,0.60
2023-11-05T04:52:15.948Z,0.40
2023-11-05T04:54:49.824Z,0.68
2023-11-05T04:57:21.340Z,0.30
2023-11-05T04:59:52.342Z,0.40
2023-11-05T05:02:42.181Z,0.40
2023-11-05T05:05:13.974Z,0.40
2023-11-05T05:07:44.802Z,0.50
2023-11-05T05:10:15.583Z,0.40
2023-11-05T05:12:45.558Z,0.45
2023-11-05T05:15:16.067Z,0.70
2023-11-05T05:17:47.129Z,0.73
2023-11-05T05:20:17.340Z,0.45
2023-11-05T05:22:47.325Z,0.80
2023-11-05T05:25:20.028Z,0.50
2023-11-05T05:27:51.314Z,0.63
2023-11-05T05:30:21.892Z,0.60
2023-11-05T05:32:53.998Z,0.50
2023-11-05T05:35:24.243Z,0.65
2023-11-05T05:37:54.920Z,0.63
2023-11-05T05:40:25.746Z,0.55
2023-11-05T05:42:56.001Z,0.70
2023-11-05T05:45:26.177Z,0.40
2023-11-05T05:47:56.082Z,0.80
2023-11-05T05:50:26.259Z,0.70
2023-11-05T05:52:56.285Z,0.57
2023-11-05T05:55:27.054Z,0.60
2023-11-05T05:57:57.731Z,0.75
2023-11-05T06:00:28.181Z,0.60
2023-11-05T06:02:58.466Z,0.50
2023-11-05T06:05:28.384Z,0.65
2023-11-05T06:07:59.721Z,0.77
2023-11-05T06:10:30.897Z,0.47
2023-11-05T06:13:01.122Z,0.70
2023-11-05T06:15:31.272Z,0.70
2023-11-05T06:18:01.518Z,0.60
2023-11-05T06:20:32.210Z,0.60
2023-11-05T06:23:03.055Z,0.70
2023-11-05T06:25:34.023Z,0.70
2023-11-05T06:28:04.251Z,0.80
2023-11-05T06:30:34.414Z,0.65
2023-11-05T06:33:05.385Z,0.77
2023-11-05T06:35:35.330Z,0.60
2023-11-05T06:38:05.498Z,0.90
2023-11-05T06:40:37.155Z,0.85
2023-11-05T06:43:07.793Z,0.90
2023-11-05T06:45:37.958Z,0.60
2023-11-05T06:48:09.112Z,0.60
2023-11-05T06:50:39.582Z,0.60
2023-11-05T06:53:09.800Z,0.65
2023-11-05T06:55:40.600Z,0.80
2023-11-05T06:58:12.316Z,0.50
2023-11-05T07:00:43.844Z,0.60
2023-11-05T07:03:14.594Z,0.63
2023-11-05T07:05:45.264Z,0.60
2023-11-05T07:08:15.489Z,0.63
2023-11-05T07:10:46.185Z,0.70
2023-11-05T07:13:17.098Z,0.63
2023-11-05T07:15:47.840Z,1.05
2023-11-05T07:18:18.569Z,0.55
2023-11-05T07:20:48.993Z,0.60
2023-11-05T07:23:20.183Z,0.50
2023-11-05T07:25:50.088Z,0.57
2023-11-05T07:28:20.966Z,0.68
2023-11-05T07:30:51.244Z,0.60
2023-11-05T07:33:21.434Z,0.70
2023-11-05T07:35:51.591Z,0.57
2023-11-05T07:38:21.752Z,0.40
2023-11-05T07:40:51.983Z,0.52
2023-11-05T07:43:22.279Z,0.60
2023-11-05T07:45:52.518Z,0.60
2023-11-05T07:48:22.969Z,0.57
2023-11-05T07:50:54.642Z,0.77
2023-11-05T07:53:26.790Z,0.63
2023-11-05T07:55:57.735Z,0.88
2023-11-05T07:58:29.549Z,0.75
2023-11-05T08:00:59.716Z,0.63
2023-11-05T08:03:30.494Z,0.60
2023-11-05T08:06:02.010Z,0.60
2023-11-05T08:08:32.210Z,0.52
2023-11-05T08:11:02.748Z,0.40
2023-11-05T08:13:34.283Z,0.50
2023-11-05T08:16:05.188Z,0.60
2023-11-05T08:18:35.571Z,0.47
2023-11-05T08:21:06.034Z,0.50
2023-11-05T08:23:37.160Z,0.50
2023-11-05T08:26:08.090Z,0.50
2023-11-05T08:28:39.752Z,0.57
2023-11-05T08:31:13.141Z,0.40
2023-11-05T08:33:43.727Z,0.40
2023-11-05T08:36:14.650Z,0.50
2023-11-05T08:38:44.860Z,0.32
2023-11-05T08:41:15.512Z,0.57
2023-11-05T08:43:46.501Z,0.32
2023-11-05T08:46:17.599Z,0.40
2023-11-05T08:48:47.794Z,0.63
2023-11-05T08:51:38.100Z,0.40
2023-11-05T08:54:08.735Z,0.68
2023-11-05T08:56:39.277Z,0.57
2023-11-05T08:59:09.890Z,0.40
2023-11-05T09:01:41.108Z,0.50
2023-11-05T09:04:16.328Z,0.45
2023-11-05T09:06:48.811Z,0.52
2023-11-05T09:09:19.294Z,0.70
2023-11-05T09:11:50.222Z,0.30
2023-11-05T09:14:21.082Z,0.40
2023-11-05T09:16:52.817Z,0.50
2023-11-05T09:19:24.245Z,0.52
2023-11-05T09:21:55.167Z,0.35
2023-11-05T09:24:33.936Z,0.60
2023-11-05T09:27:05.296Z,0.40
2023-11-05T09:29:37.876Z,0.32
2023-11-05T09:32:09.543Z,0.80
2023-11-05T09:34:40.439Z,0.40
2023-11-05T09:37:13.819Z,0.20
2023-11-05T09:39:46.928Z,0.60
2023-11-05T09:42:23.024Z,0.60
2023-11-05T09:44:53.759Z,0.50
2023-11-05T09:47:25.915Z,0.73
2023-11-05T09:49:57.005Z,0.38
2023-11-05T09:52:28.463Z,0.30
2023-11-05T09:55:05.522Z,0.32
2023-11-05T09:57:39.843Z,0.30
2023-11-05T10:00:12.197Z,0.50
2023-11-05T10:03:11.179Z,0.40
2023-11-05T10:05:45.615Z,0.40
2023-11-05T10:08:19.025Z,0.50
2023-11-05T10:10:50.308Z,0.52
2023-11-05T10:13:22.113Z,0.40
2023-11-05T10:15:55.116Z,0.28
2023-11-05T10:18:26.615Z,0.40
2023-11-05T10:20:59.036Z,0.32
2023-11-05T10:23:29.899Z,0.57
2023-11-05T10:26:01.795Z,0.20
2023-11-05T10:28:32.009Z,0.60
2023-11-05T10:31:05.610Z,0.40
2023-11-05T10:33:36.351Z,0.52
2023-11-05T10:36:09.421Z,0.30
2023-11-05T10:38:41.207Z,0.60
2023-11-05T10:41:13.326Z,0.40
2023-11-05T10:43:44.053Z,0.50
2023-11-05T10:46:15.834Z,0.47
2023-11-05T10:48:48.536Z,0.52
2023-11-05T10:51:23.816Z,0.50
2023-11-05T10:53:56.134Z,0.57
2023-11-05T10:56:39.398Z,0.40
2023-11-05T10:59:10.085Z,0.65
2023-11-05T11:01:40.465Z,0.43
2023-11-05T11:04:17.529Z,0.70
2023-11-05T11:06:48.349Z,0.52
2023-11-05T11:09:21.719Z,0.65
2023-11-05T11:11:53.079Z,0.52
2023-11-05T11:14:27.181Z,0.50
2023-11-05T11:16:57.534Z,0.60
2023-11-05T11:19:28.505Z,1.10
2023-11-05T11:21:58.867Z,0.65
2023-11-05T11:24:36.838Z,0.40
2023-11-05T11:27:08.597Z,0.60
2023-11-05T11:29:45.464Z,0.50
2023-11-05T11:32:17.925Z,0.52
2023-11-05T11:34:49.396Z,0.77
2023-11-05T11:37:19.666Z,0.50
2023-11-05T11:39:50.244Z,0.70
2023-11-05T11:42:21.005Z,0.60
2023-11-05T11:44:51.535Z,0.60
2023-11-05T11:47:27.763Z,0.50
2023-11-05T11:49:58.855Z,0.80
2023-11-05T11:52:29.123Z,0.47
2023-11-05T11:55:00.020Z,0.82
2023-11-05T11:57:30.895Z,0.77
2023-11-05T12:00:01.432Z,0.60
2023-11-05T12:02:31.737Z,0.70
2023-11-05T12:05:02.802Z,0.60
2023-11-05T12:07:49.321Z,0.80
2023-11-05T12:10:22.314Z,0.90
2023-11-05T12:12:52.889Z,0.77
2023-11-05T12:15:23.525Z,0.75
2023-11-05T12:17:55.239Z,0.45
2023-11-05T12:20:25.972Z,0.68
2023-11-05T12:22:56.139Z,0.80
2023-11-05T12:25:26.393Z,0.80
2023-11-05T12:27:59.283Z,1.00
2023-11-05T12:30:31.651Z,0.95
2023-11-05T12:33:05.556Z,0.70
2023-11-05T12:35:37.685Z,0.65
2023-11-05T12:38:08.061Z,0.80
2023-11-05T12:40:38.263Z,0.77
2023-11-05T12:43:08.490Z,1.50
2023-11-05T12:45:38.700Z,1.33
2023-11-05T12:48:09.752Z,0.65
2023-11-05T12:50:40.010Z,0.77
2023-11-05T12:53:11.880Z,1.20
2023-11-05T12:55:42.031Z,0.47
2023-11-05T12:58:12.501Z,0.85
2023-11-05T13:00:43.252Z,1.17
2023-11-05T13:03:13.984Z,0.95
2023-11-05T13:05:46.568Z,1.08
2023-11-05T13:08:17.793Z,0.73
2023-11-05T13:10:48.091Z,0.70
2023-11-05T13:13:21.562Z,1.00
2023-11-05T13:16:05.393Z,1.08
2023-11-05T13:18:36.046Z,0.65
2023-11-05T13:21:06.836Z,1.20
2023-11-05T13:23:37.124Z,0.80
2023-11-05T13:26:08.161Z,0.80
2023-11-05T13:28:38.801Z,1.60
2023-11-05T13:31:09.359Z,1.90
2023-11-05T13:33:39.353Z,0.98
2023-11-05T13:36:10.047Z,0.60
2023-11-05T13:38:41.196Z,11.93
2023-11-05T13:41:12.144Z,11.57
2023-11-05T13:43:42.553Z,18.05
2023-11-05T13:46:12.877Z,18.77
2023-11-05T13:48:43.711Z,11.70
2023-11-05T13:51:13.677Z,8.95
2023-11-05T13:53:43.961Z,9.85
2023-11-05T13:56:14.770Z,6.97
2023-11-05T13:58:46.958Z,7.55
2023-11-05T14:01:24.658Z,14.85
2023-11-05T14:03:55.505Z,12.68
2023-11-05T14:06:27.667Z,14.05
2023-11-05T14:09:00.399Z,18.00
2023-11-05T14:11:30.601Z,11.30
2023-11-05T14:16:48.154Z,10.38
2023-11-05T14:19:19.380Z,12.20
2023-11-05T14:21:49.540Z,14.77
2023-11-05T14:24:19.907Z,9.32
2023-11-05T14:26:52.685Z,22.70
2023-11-05T14:29:25.997Z,14.55
2023-11-05T14:31:57.946Z,14.20
2023-11-05T14:34:28.841Z,11.50
2023-11-05T14:36:59.620Z,12.82
2023-11-05T14:39:31.798Z,12.70
2023-11-05T14:42:02.208Z,8.95
2023-11-05T14:44:33.355Z,19.98
2023-11-05T14:47:05.584Z,13.68
2023-11-05T14:49:36.414Z,8.63
2023-11-05T14:52:08.699Z,16.45
2023-11-05T14:54:41.542Z,11.18
2023-11-05T14:57:14.656Z,10.55
2023-11-05T14:59:46.481Z,14.18
2023-11-05T15:02:16.747Z,13.23
2023-11-05T15:04:50.690Z,9.77
2023-11-05T15:07:21.870Z,7.18
2023-11-05T15:09:53.152Z,11.80
2023-11-05T15:12:24.045Z,21.42
2023-11-05T15:14:55.303Z,11.63
2023-11-05T15:17:27.426Z,12.48
2023-11-05T15:19:58.936Z,11.95
2023-11-05T15:22:29.452Z,7.47
2023-11-05T15:25:02.820Z,12.32
2023-11-05T15:27:33.302Z,15.05
2023-11-05T15:30:03.351Z,12.35
2023-11-05T15:32:34.001Z,11.90
2023-11-05T15:35:05.020Z,13.05
2023-11-05T15:37:35.344Z,5.95
2023-11-05T15:40:07.425Z,7.45
2023-11-05T15:42:42.650Z,11.55
2023-11-05T15:45:14.342Z,10.05
2023-11-05T15:47:46.535Z,13.05
2023-11-05T15:50:16.891Z,10.32
2023-11-05T15:52:47.272Z,6.40
2023-11-05T15:55:19.140Z,10.13
2023-11-05T15:57:50.737Z,9.50
2023-11-05T16:00:27.337Z,20.98
2023-11-05T16:03:00.756Z,7.90
2023-11-05T16:05:31.376Z,12.23
2023-11-05T16:08:02.744Z,11.75
2023-11-05T16:10:33.366Z,6.00
2023-11-05T16:13:09.745Z,9.32
2023-11-05T16:15:44.313Z,6.43
2023-11-05T16:18:15.786Z,8.13
2023-11-05T16:20:47.372Z,6.85
2023-11-05T16:23:18.234Z,8.02
2023-11-05T16:25:49.745Z,7.53
2023-11-05T16:28:22.847Z,10.10
2023-11-05T16:30:55.350Z,5.70
2023-11-05T16:33:27.326Z,8.27
2023-11-05T16:36:03.390Z,4.60
2023-11-05T16:38:37.030Z,5.43
2023-11-05T16:41:19.008Z,12.05
2023-11-05T16:43:50.532Z,11.07
2023-11-05T16:46:27.094Z,5.18
2023-11-05T16:48:57.862Z,8.20
2023-11-05T16:51:33.563Z,7.18
2023-11-05T16:54:05.014Z,7.72
2023-11-05T16:56:37.925Z,6.80
2023-11-05T16:59:09.329Z,7.72
2023-11-05T17:01:39.994Z,8.77
2023-11-05T17:04:16.086Z,10.30
2023-11-05T17:06:49.405Z,3.65
2023-11-05T17:09:20.076Z,12.55
2023-11-05T17:11:50.442Z,10.88
2023-11-05T17:14:21.480Z,8.13
2023-11-05T17:16:52.823Z,4.65
2023-11-05T17:19:23.359Z,5.75
2023-11-05T17:21:55.854Z,17.08
2023-11-05T17:24:28.841Z,8.70
2023-11-05T17:27:01.373Z,10.50
2023-11-05T17:29:32.597Z,7.78
2023-11-05T17:32:04.304Z,6.82
2023-11-05T17:34:35.141Z,5.18
2023-11-05T17:37:08.903Z,5.97
2023-11-05T17:39:39.354Z,6.15
2023-11-05T17:42:11.401Z,3.90
2023-11-05T17:44:45.807Z,8.02
2023-11-05T17:47:16.101Z,8.35
2023-11-05T17:49:47.439Z,3.40
2023-11-05T17:52:19.436Z,4.32
2023-11-05T17:54:49.728Z,4.65
2023-11-05T17:57:19.967Z,3.22
2023-11-05T17:59:50.236Z,5.82
2023-11-05T18:02:23.084Z,8.75
2023-11-05T18:04:56.560Z,6.68
2023-11-05T18:07:27.093Z,4.97
2023-11-05T18:09:57.621Z,3.60
2023-11-05T18:12:27.586Z,7.85
2023-11-05T18:15:02.305Z,5.05
2023-11-05T18:17:35.118Z,3.88
2023-11-05T18:20:08.078Z,8.70
2023-11-05T18:22:39.518Z,8.35
2023-11-05T18:25:11.156Z,2.92
2023-11-05T18:27:42.391Z,2.70
2023-11-05T18:30:13.009Z,6.05
2023-11-05T18:32:45.488Z,3.75
2023-11-05T18:35:15.761Z,4.00
2023-11-05T18:37:45.845Z,4.20
2023-11-05T18:40:16.872Z,4.60
2023-11-05T18:42:48.765Z,7.63
2023-11-05T18:45:19.152Z,6.65
2023-11-05T18:47:51.194Z,3.90
2023-11-05T18:50:21.600Z,7.00
2023-11-05T18:52:52.746Z,8.60
2023-11-05T18:55:24.434Z,5.93
2023-11-05T18:57:57.685Z,8.25
2023-11-05T19:00:29.067Z,7.05
2023-11-05T19:03:00.216Z,4.07
2023-11-05T19:05:31.087Z,2.97
2023-11-05T19:08:04.660Z,6.10
2023-11-05T19:10:36.478Z,5.72
2023-11-05T19:13:07.968Z,4.95
2023-11-05T19:15:39.708Z,7.57
2023-11-05T19:18:10.849Z,4.95
2023-11-05T19:20:42.333Z,5.88
2023-11-05T19:23:16.821Z,6.13
2023-11-05T19:25:47.811Z,4.60
2023-11-05T19:28:18.969Z,6.90
2023-11-05T19:30:48.958Z,4.28
2023-11-05T19:33:21.265Z,7.15
2023-11-05T19:35:51.567Z,3.13
2023-11-05T19:38:22.573Z,7.00
2023-11-05T19:40:53.311Z,6.85
2023-11-05T19:43:24.699Z,8.35
2023-11-05T19:45:54.721Z,7.40
2023-11-05T19:48:28.263Z,4.05
2023-11-05T19:50:58.795Z,4.45
2023-11-05T19:53:34.500Z,5.55
2023-11-05T19:56:12.723Z,10.32
2023-11-05T19:58:48.000Z,5.20
2023-11-05T20:01:19.712Z,11.48
2023-11-05T20:03:50.204Z,5.93
2023-11-05T20:06:23.137Z,4.00
2023-11-05T20:08:53.541Z,10.70
2023-11-05T20:11:24.783Z,7.38
2023-11-05T20:13:56.193Z,7.93
2023-11-05T20:16:36.475Z,6.72
2023-11-05T20:19:14.190Z,9.30
2023-11-05T20:24:20.512Z,6.28
2023-11-05T20:29:30.969Z,8.88
2023-11-05T20:32:13.123Z,11.77
2023-11-05T20:34:44.044Z,13.75
2023-11-05T20:37:14.793Z,11.27
2023-11-05T20:39:48.526Z,12.50
2023-11-05T20:42:19.864Z,8.30
2023-11-05T20:44:50.230Z,13.07
2023-11-05T20:47:20.786Z,5.65
2023-11-05T20:49:51.763Z,8.23
2023-11-05T20:52:27.680Z,7.63
2023-11-05T20:55:00.410Z,9.45
2023-11-05T20:57:32.306Z,8.55
2023-11-05T21:00:03.970Z,13.02
2023-11-05T21:02:35.456Z,7.03
2023-11-05T21:05:11.712Z,8.98
2023-11-05T21:07:43.479Z,12.30
2023-11-05T21:10:19.168Z,10.40
2023-11-05T21:12:50.880Z,12.13
2023-11-05T21:15:21.373Z,6.75
2023-11-05T21:17:52.298Z,11.60
2023-11-05T21:20:23.862Z,7.50
2023-11-05T21:22:54.621Z,15.75
2023-11-05T21:25:27.732Z,14.40
2023-11-05T21:28:01.985Z,17.42
2023-11-05T21:30:34.196Z,16.77
2023-11-05T21:33:05.209Z,13.90
2023-11-05T21:35:38.591Z,13.52
2023-11-05T21:38:09.398Z,9.73
2023-11-05T21:40:42.136Z,16.25
2023-11-05T21:43:12.830Z,11.35
2023-11-05T21:45:43.409Z,9.40
2023-11-05T21:48:22.377Z,12.13
2023-11-05T21:50:53.482Z,10.32
2023-11-05T21:53:23.472Z,10.43
2023-11-05T21:56:00.771Z,8.30
2023-11-05T21:58:32.597Z,16.83
2023-11-05T22:01:06.070Z,11.02
2023-11-05T22:03:43.027Z,14.32
2023-11-05T22:06:16.767Z,13.93
2023-11-05T22:08:47.216Z,15.15
2023-11-05T22:11:18.718Z,10.40
2023-11-05T22:13:51.619Z,14.52
2023-11-05T22:16:21.983Z,20.55
2023-11-05T22:18:53.744Z,9.73
2023-11-05T22:21:24.484Z,12.50
2023-11-05T22:23:54.832Z,13.48
2023-11-05T22:26:25.198Z,7.50
2023-11-05T22:28:55.630Z,18.23
2023-11-05T22:31:26.673Z,13.80
2023-11-05T22:34:03.413Z,7.68
2023-11-05T22:36:34.890Z,16.92
2023-11-05T22:39:06.236Z,12.90
2023-11-05T22:41:38.421Z,17.85
2023-11-05T22:44:09.821Z,16.65
2023-11-05T22:46:45.851Z,16.52
2023-11-05T22:49:23.045Z,21.55
2023-11-05T22:51:56.188Z,16.13
2023-11-05T22:54:27.896Z,15.75
2023-11-05T22:56:59.946Z,14.43
2023-11-05T22:59:32.328Z,14.98
2023-11-05T23:02:05.559Z,17.38
2023-11-05T23:04:36.472Z,17.27
2023-11-05T23:07:08.835Z,20.02
2023-11-05T23:09:42.489Z,17.77
2023-11-05T23:12:15.498Z,14.98
2023-11-05T23:14:46.036Z,17.05
2023-11-05T23:17:17.213Z,19.60
2023-11-05T23:19:47.844Z,16.08
2023-11-05T23:22:21.203Z,12.68
2023-11-05T23:24:53.979Z,15.88
2023-11-05T23:27:27.279Z,13.35
2023-11-05T23:30:00.815Z,12.10
2023-11-05T23:32:31.543Z,16.52
2023-11-05T23:35:03.114Z,13.23
2023-11-05T23:37:34.549Z,10.07
2023-11-05T23:40:10.756Z,14.45
2023-11-05T23:42:44.466Z,15.30
2023-11-05T23:45:18.012Z,15.85
2023-11-05T23:47:48.730Z,12.00
2023-11-05T23:50:20.331Z,16.63
2023-11-05T23:52:52.327Z,16.65
2023-11-05T23:55:22.550Z,13.88
2023-11-05T23:57:57.108Z,12.35
